createdAt,value
2023-01-15T00:01:47.191Z,987.6
2023-01-15T00:04:47.193Z,987.7
2023-01-15T00:07:47.193Z,987.7
2023-01-15T00:10:47.197Z,987.6
2023-01-15T00:13:47.197Z,987.6
2023-01-15T00:16:47.205Z,987.7
2023-01-15T00:19:47.197Z,987.6
2023-01-15T00:22:47.203Z,987.6
2023-01-15T00:25:47.215Z,987.6
2023-01-15T00:28:47.222Z,987.7
2023-01-15T00:31:47.225Z,987.8
2023-01-15T00:34:47.230Z,987.8
2023-01-15T00:37:47.236Z,987.6
2023-01-15T00:40:47.246Z,987.7
2023-01-15T00:43:47.255Z,987.7
2023-01-15T00:46:47.290Z,987.6
2023-01-15T00:49:47.275Z,987.5
2023-01-15T00:52:47.286Z,987.5
2023-01-15T00:55:47.294Z,987.6
2023-01-15T00:58:47.306Z,988
2023-01-15T01:01:47.354Z,987.8
2023-01-15T01:04:47.328Z,988.2
2023-01-15T01:07:47.353Z,988.2
2023-01-15T01:10:47.351Z,988.2
2023-01-15T01:13:47.372Z,988.4
2023-01-15T01:16:47.380Z,988.4
2023-01-15T01:19:47.384Z,988.6
2023-01-15T01:22:47.402Z,988.8
2023-01-15T01:25:47.414Z,988.9
2023-01-15T01:28:47.425Z,989
2023-01-15T01:31:47.475Z,989
2023-01-15T01:34:47.449Z,989.1
2023-01-15T01:37:47.462Z,989.1
2023-01-15T01:40:47.471Z,989.3
2023-01-15T01:43:47.484Z,989.3
2023-01-15T01:46:47.502Z,989.1
2023-01-15T01:49:47.513Z,989.3
2023-01-15T01:52:47.528Z,989.3
2023-01-15T01:55:47.538Z,989.4
2023-01-15T01:58:47.548Z,989.6
2023-01-15T02:01:47.772Z,989.7
2023-01-15T02:04:47.570Z,989.7
2023-01-15T02:07:47.604Z,989.7
2023-01-15T02:10:47.606Z,989.7
2023-01-15T02:13:47.622Z,989.9
2023-01-15T02:16:47.626Z,989.8
2023-01-15T02:19:47.642Z,989.8
2023-01-15T02:22:47.654Z,989.8
2023-01-15T02:25:47.668Z,989.7
2023-01-15T02:28:47.682Z,989.7
2023-01-15T02:31:47.755Z,989.7
2023-01-15T02:34:47.714Z,989.8
2023-01-15T02:37:47.726Z,989.8
2023-01-15T02:40:47.744Z,989.7
2023-01-15T02:43:47.758Z,989.7
2023-01-15T02:46:47.769Z,989.8
2023-01-15T02:49:47.782Z,989.9
2023-01-15T02:52:47.794Z,989.9
2023-01-15T02:55:47.810Z,989.9
2023-01-15T02:58:47.844Z,990
2023-01-15T03:01:47.976Z,990.1
2023-01-15T03:04:47.858Z,990
2023-01-15T03:07:47.870Z,990.1
2023-01-15T03:10:47.890Z,990.1
2023-01-15T03:13:47.902Z,990.1
2023-01-15T03:16:48.002Z,990.1
2023-01-15T03:19:47.919Z,990
2023-01-15T03:22:47.933Z,989.9
2023-01-15T03:25:47.964Z,989.9
2023-01-15T03:28:47.970Z,990
2023-01-15T03:31:47.991Z,989.7
2023-01-15T03:34:48.001Z,989.7
2023-01-15T03:37:48.027Z,989.7
2023-01-15T03:40:48.039Z,989.6
2023-01-15T03:43:48.049Z,989.6
2023-01-15T03:46:48.061Z,989.7
2023-01-15T03:49:48.077Z,989.6
2023-01-15T03:52:48.096Z,989.7
2023-01-15T03:55:48.110Z,989.6
2023-01-15T03:58:48.126Z,989.6
2023-01-15T04:01:48.295Z,989.8
2023-01-15T04:04:48.153Z,989.7
2023-01-15T04:07:48.176Z,989.7
2023-01-15T04:10:48.193Z,989.6
2023-01-15T04:13:48.207Z,989.6
2023-01-15T04:16:48.226Z,989.5
2023-01-15T04:19:48.242Z,989.6
2023-01-15T04:22:48.260Z,989.6
2023-01-15T04:25:48.280Z,989.4
2023-01-15T04:28:48.298Z,989.4
2023-01-15T04:31:48.323Z,989.3
2023-01-15T04:34:48.339Z,989.2
2023-01-15T04:37:48.352Z,989.3
2023-01-15T04:40:48.365Z,989.1
2023-01-15T04:43:48.379Z,989.2
2023-01-15T04:46:48.392Z,989.1
2023-01-15T04:49:48.410Z,989.2
2023-01-15T04:52:48.420Z,989.2
2023-01-15T04:55:48.437Z,989.3
2023-01-15T04:58:48.451Z,989.2
2023-01-15T05:02:02.272Z,989
2023-01-15T05:04:48.536Z,989
2023-01-15T05:07:48.492Z,988.9
2023-01-15T05:10:48.505Z,988.9
2023-01-15T05:13:48.522Z,988.9
2023-01-15T05:16:48.551Z,988.9
2023-01-15T05:19:48.563Z,988.9
2023-01-15T05:22:48.575Z,988.9
2023-01-15T05:25:48.579Z,988.9
2023-01-15T05:28:48.589Z,988.9
2023-01-15T05:31:48.601Z,988.8
2023-01-15T05:34:48.619Z,989
2023-01-15T05:37:48.633Z,989.1
2023-01-15T05:40:48.642Z,988.9
2023-01-15T05:43:48.661Z,988.9
2023-01-15T05:46:48.679Z,988.8
2023-01-15T05:49:48.693Z,988.8
2023-01-15T05:52:48.715Z,988.9
2023-01-15T05:55:48.738Z,988.8
2023-01-15T05:58:48.763Z,988.9
2023-01-15T06:01:48.756Z,989
2023-01-15T06:04:48.777Z,989.1
2023-01-15T06:07:48.786Z,988.8
2023-01-15T06:10:48.806Z,988.8
2023-01-15T06:13:48.823Z,988.9
2023-01-15T06:16:48.848Z,988.9
2023-01-15T06:19:48.857Z,989.2
2023-01-15T06:22:48.874Z,989.2
2023-01-15T06:25:48.893Z,989
2023-01-15T06:28:48.917Z,989.2
2023-01-15T06:31:48.989Z,989.3
2023-01-15T06:34:48.942Z,989.3
2023-01-15T06:37:48.958Z,989.4
2023-01-15T06:40:48.979Z,989.4
2023-01-15T06:43:48.995Z,989.5
2023-01-15T06:46:49.056Z,989.4
2023-01-15T06:49:49.032Z,989.4
2023-01-15T06:52:49.051Z,989.4
2023-01-15T06:55:49.067Z,989.4
2023-01-15T06:58:49.082Z,989.4
2023-01-15T07:01:49.183Z,989.5
2023-01-15T07:04:49.190Z,989.3
2023-01-15T07:07:49.140Z,989.3
2023-01-15T07:10:49.157Z,989.5
2023-01-15T07:13:49.176Z,989.5
2023-01-15T07:16:49.207Z,989.4
2023-01-15T07:19:49.218Z,989.3
2023-01-15T07:22:49.233Z,989.4
2023-01-15T07:25:49.249Z,989.3
2023-01-15T07:28:49.268Z,989.4
2023-01-15T07:31:49.294Z,989.4
2023-01-15T07:34:49.300Z,989.4
2023-01-15T07:37:49.319Z,989.5
2023-01-15T07:40:49.341Z,989.4
2023-01-15T07:43:49.353Z,989.4
2023-01-15T07:46:49.384Z,989.3
2023-01-15T07:49:49.385Z,989.4
2023-01-15T07:52:50.846Z,989.5
2023-01-15T07:55:49.432Z,989.5
2023-01-15T07:58:49.455Z,989.5
2023-01-15T08:01:49.562Z,989.5
2023-01-15T08:04:49.489Z,989.5
2023-01-15T08:07:49.513Z,989.5
2023-01-15T08:10:49.529Z,989.4
2023-01-15T08:13:49.561Z,989.4
2023-01-15T08:16:49.592Z,989.5
2023-01-15T08:19:49.590Z,989.5
2023-01-15T08:22:49.612Z,989.4
2023-01-15T08:25:49.650Z,989.5
2023-01-15T08:28:49.652Z,989.5
2023-01-15T08:31:49.725Z,989.4
2023-01-15T08:34:49.722Z,989.4
2023-01-15T08:37:49.710Z,989.5
2023-01-15T08:40:49.742Z,989.4
2023-01-15T08:43:49.741Z,989.4
2023-01-15T08:46:49.758Z,989.6
2023-01-15T08:49:49.779Z,989.5
2023-01-15T08:52:49.800Z,989.5
2023-01-15T08:55:49.817Z,989.5
2023-01-15T08:58:49.838Z,989.6
2023-01-15T09:01:49.945Z,989.4
2023-01-15T09:04:49.945Z,989.3
2023-01-15T09:07:49.892Z,989.3
2023-01-15T09:10:49.920Z,989.4
2023-01-15T09:13:49.943Z,989.4
2023-01-15T09:16:49.981Z,989.4
2023-01-15T09:19:49.972Z,989.3
2023-01-15T09:22:49.983Z,989.4
2023-01-15T09:25:51.675Z,989.5
2023-01-15T09:28:50.025Z,989.6
2023-01-15T09:31:50.044Z,989.7
2023-01-15T09:34:50.062Z,989.7
2023-01-15T09:37:50.080Z,989.6
2023-01-15T09:40:50.107Z,989.7
2023-01-15T09:43:51.267Z,989.8
2023-01-15T09:46:50.141Z,989.9
2023-01-15T09:49:50.163Z,989.9
2023-01-15T09:52:50.191Z,989.8
2023-01-15T09:55:50.222Z,989.8
2023-01-15T09:58:50.240Z,989.8
2023-01-15T10:01:50.236Z,989.8
2023-01-15T10:04:50.246Z,989.6
2023-01-15T10:07:50.261Z,989.7
2023-01-15T10:10:50.271Z,989.6
2023-01-15T10:13:50.289Z,989.7
2023-01-15T10:16:50.295Z,989.7
2023-01-15T10:19:50.315Z,989.7
2023-01-15T10:22:50.327Z,989.8
2023-01-15T10:25:50.336Z,989.7
2023-01-15T10:28:50.347Z,989.6
2023-01-15T10:31:50.359Z,989.5
2023-01-15T10:34:50.376Z,989.5
2023-01-15T10:37:50.382Z,989.7
2023-01-15T10:40:50.393Z,989.6
2023-01-15T10:43:50.415Z,989.6
2023-01-15T10:46:50.424Z,989.6
2023-01-15T10:49:50.433Z,989.6
2023-01-15T10:52:50.452Z,989.6
2023-01-15T10:55:50.470Z,989.4
2023-01-15T10:58:50.491Z,989.5
2023-01-15T11:01:50.598Z,989.3
2023-01-15T11:04:50.523Z,989.5
2023-01-15T11:08:14.052Z,989.7
2023-01-15T11:10:50.552Z,989.8
2023-01-15T11:13:50.574Z,989.8
2023-01-15T11:16:50.588Z,989.8
2023-01-15T11:19:50.609Z,989.8
2023-01-15T11:22:50.623Z,989.8
2023-01-15T11:25:50.634Z,989.8
2023-01-15T11:28:50.643Z,989.7
2023-01-15T11:31:50.664Z,989.7
2023-01-15T11:34:50.688Z,989.7
2023-01-15T11:37:50.702Z,989.7
2023-01-15T11:40:52.719Z,989.7
2023-01-15T11:43:50.725Z,989.7
2023-01-15T11:46:50.743Z,989.6
2023-01-15T11:49:50.771Z,989.6
2023-01-15T11:52:50.769Z,989.6
2023-01-15T11:55:50.815Z,989.6
2023-01-15T11:58:50.800Z,989.6
2023-01-15T12:01:50.812Z,989.7
2023-01-15T12:04:50.913Z,989.5
2023-01-15T12:07:50.846Z,989.6
2023-01-15T12:10:50.856Z,989.7
2023-01-15T12:13:50.867Z,989.5
2023-01-15T12:16:50.887Z,989.6
2023-01-15T12:19:50.901Z,989.6
2023-01-15T12:22:50.920Z,989.7
2023-01-15T12:25:50.928Z,989.5
2023-01-15T12:28:50.933Z,989.5
2023-01-15T12:31:50.952Z,989.5
2023-01-15T12:34:50.969Z,989.4
2023-01-15T12:37:50.983Z,989.5
2023-01-15T12:40:50.998Z,989.4
2023-01-15T12:43:51.020Z,989.5
2023-01-15T12:46:51.055Z,989.7
2023-01-15T12:49:51.025Z,989.5
2023-01-15T12:52:51.042Z,989.3
2023-01-15T12:55:51.055Z,989.4
2023-01-15T12:58:51.060Z,989.4
2023-01-15T13:01:51.194Z,989.4
2023-01-15T13:04:51.092Z,989.4
2023-01-15T13:07:51.108Z,989.4
2023-01-15T13:10:51.129Z,989.4
2023-01-15T13:13:51.128Z,989.4
2023-01-15T13:16:51.145Z,989.6
2023-01-15T13:19:51.152Z,989.3
2023-01-15T13:22:51.251Z,989.3
2023-01-15T13:25:51.178Z,989.5
2023-01-15T13:28:51.191Z,989.5
2023-01-15T13:31:51.225Z,989.1
2023-01-15T13:34:51.215Z,989.2
2023-01-15T13:37:51.232Z,989.5
2023-01-15T13:40:51.238Z,989.5
2023-01-15T13:43:51.246Z,989.5
2023-01-15T13:46:51.259Z,989.5
2023-01-15T13:49:51.272Z,989.4
2023-01-15T13:52:51.282Z,989.5
2023-01-15T13:55:51.298Z,989.5
2023-01-15T13:58:51.305Z,989.5
2023-01-15T14:01:51.474Z,989.5
2023-01-15T14:04:51.333Z,989.5
2023-01-15T14:07:51.342Z,989.4
2023-01-15T14:10:51.362Z,989.4
2023-01-15T14:13:51.371Z,989.4
2023-01-15T14:16:51.387Z,989.4
2023-01-15T14:19:51.407Z,989.3
2023-01-15T14:22:51.403Z,989.4
2023-01-15T14:25:51.411Z,989.6
2023-01-15T14:28:51.429Z,989.6
2023-01-15T14:31:51.508Z,989.7
2023-01-15T14:34:51.458Z,989.6
2023-01-15T14:37:51.481Z,989.6
2023-01-15T14:40:51.486Z,989.7
2023-01-15T14:43:51.502Z,989.7
2023-01-15T14:46:51.519Z,989.7
2023-01-15T14:49:51.526Z,989.5
2023-01-15T14:52:51.539Z,989.7
2023-01-15T14:55:51.549Z,989.6
2023-01-15T14:58:51.567Z,989.6
2023-01-15T15:01:51.860Z,989.3
2023-01-15T15:04:51.601Z,989.6
2023-01-15T15:07:51.616Z,989.6
2023-01-15T15:10:51.623Z,989.7
2023-01-15T15:13:51.640Z,989.6
2023-01-15T15:16:51.680Z,989.8
2023-01-15T15:19:51.665Z,989.6
2023-01-15T15:22:51.675Z,989.6
2023-01-15T15:25:51.692Z,989.7
2023-01-15T15:28:51.705Z,989.7
2023-01-15T15:31:51.720Z,989.9
2023-01-15T15:34:51.734Z,989.7
2023-01-15T15:37:51.759Z,989.6
2023-01-15T15:40:51.776Z,989.7
2023-01-15T15:43:51.780Z,989.8
2023-01-15T15:46:51.785Z,989.6
2023-01-15T15:49:51.799Z,989.7
2023-01-15T15:52:51.805Z,989.6
2023-01-15T15:55:51.828Z,989.7
2023-01-15T15:58:51.835Z,989.7
2023-01-15T16:01:51.978Z,989.8
2023-01-15T16:04:51.913Z,989.8
2023-01-15T16:07:51.882Z,989.8
2023-01-15T16:10:51.894Z,989.9
2023-01-15T16:13:51.911Z,989.9
2023-01-15T16:16:51.937Z,989.9
2023-01-15T16:19:51.934Z,989.9
2023-01-15T16:22:51.944Z,989.6
2023-01-15T16:25:51.956Z,989.9
2023-01-15T16:28:51.971Z,989.9
2023-01-15T16:31:51.981Z,990
2023-01-15T16:34:51.998Z,990.1
2023-01-15T16:37:52.014Z,990.1
2023-01-15T16:40:52.035Z,990
2023-01-15T16:43:52.045Z,989.9
2023-01-15T16:46:52.070Z,990
2023-01-15T16:49:52.081Z,990.1
2023-01-15T16:52:52.100Z,990.1
2023-01-15T16:55:52.107Z,990.2
2023-01-15T16:58:52.127Z,990
2023-01-15T17:01:52.240Z,990.2
2023-01-15T17:04:52.154Z,990.2
2023-01-15T17:07:52.163Z,990.2
2023-01-15T17:10:52.184Z,990.2
2023-01-15T17:13:52.193Z,990.2
2023-01-15T17:16:52.206Z,990.1
2023-01-15T17:19:52.242Z,990.2
2023-01-15T17:22:52.244Z,990
2023-01-15T17:25:52.268Z,990.1
2023-01-15T17:28:52.386Z,990.2
2023-01-15T17:31:52.292Z,990.2
2023-01-15T17:34:52.306Z,990.2
2023-01-15T17:37:52.319Z,990.2
2023-01-15T17:40:52.339Z,990.3
2023-01-15T17:43:52.374Z,990.2
2023-01-15T17:46:52.369Z,990.3
2023-01-15T17:49:52.387Z,990.3
2023-01-15T17:52:52.410Z,990.2
2023-01-15T17:55:52.422Z,990.1
2023-01-15T17:58:52.440Z,990.2
2023-01-15T18:01:52.616Z,990.3
2023-01-15T18:04:52.472Z,990.4
2023-01-15T18:07:52.491Z,990.3
2023-01-15T18:10:52.499Z,990.3
2023-01-15T18:13:52.523Z,990.3
2023-01-15T18:16:52.536Z,990.4
2023-01-15T18:19:53.904Z,990.4
2023-01-15T18:22:52.568Z,990.5
2023-01-15T18:25:52.589Z,990.4
2023-01-15T18:28:52.598Z,990.5
2023-01-15T18:31:52.625Z,990.4
2023-01-15T18:34:52.637Z,990.5
2023-01-15T18:37:52.650Z,990.5
2023-01-15T18:40:52.666Z,990.5
2023-01-15T18:43:52.673Z,990.5
2023-01-15T18:46:52.796Z,990.6
2023-01-15T18:49:53.990Z,990.6
2023-01-15T18:52:52.767Z,990.5
2023-01-15T18:55:52.749Z,990.6
2023-01-15T18:58:53.887Z,990.6
2023-01-15T19:01:52.841Z,990.6
2023-01-15T19:04:52.798Z,990.6
2023-01-15T19:07:52.808Z,990.7
2023-01-15T19:10:52.819Z,990.7
2023-01-15T19:13:52.841Z,990.7
2023-01-15T19:16:52.856Z,990.8
2023-01-15T19:19:52.881Z,990.7
2023-01-15T19:22:52.886Z,990.7
2023-01-15T19:25:52.903Z,990.6
2023-01-15T19:28:52.918Z,990.6
2023-01-15T19:31:52.975Z,990.8
2023-01-15T19:34:52.949Z,990.8
2023-01-15T19:37:52.967Z,991
2023-01-15T19:40:52.976Z,990.7
2023-01-15T19:43:52.988Z,990.7
2023-01-15T19:46:53.012Z,990.8
2023-01-15T19:49:53.008Z,991
2023-01-15T19:52:53.007Z,991
2023-01-15T19:55:53.022Z,991
2023-01-15T19:58:53.019Z,991.1
2023-01-15T20:01:53.041Z,991.1
2023-01-15T20:04:53.024Z,991.1
2023-01-15T20:07:53.019Z,991.1
2023-01-15T20:10:53.030Z,991.1
2023-01-15T20:13:53.035Z,991.1
2023-01-15T20:16:53.030Z,991.1
2023-01-15T20:19:53.026Z,991
2023-01-15T20:22:53.038Z,991.1
2023-01-15T20:25:53.034Z,991.1
2023-01-15T20:28:53.027Z,991.2
2023-01-15T20:31:53.085Z,991.1
2023-01-15T20:34:53.037Z,991.1
2023-01-15T20:37:53.042Z,991.1
2023-01-15T20:40:53.041Z,991.1
2023-01-15T20:43:53.041Z,991.2
2023-01-15T20:46:53.057Z,991
2023-01-15T20:49:53.047Z,991.1
2023-01-15T20:52:53.050Z,991.1
2023-01-15T20:55:57.176Z,991.1
2023-01-15T20:58:53.047Z,991.1
2023-01-15T21:01:54.952Z,991.2
2023-01-15T21:04:53.058Z,991.1
2023-01-15T21:07:53.056Z,991.1
2023-01-15T21:10:53.054Z,991.3
2023-01-15T21:13:53.047Z,991.2
2023-01-15T21:16:53.132Z,991.2
2023-01-15T21:19:53.103Z,991.2
2023-01-15T21:22:53.100Z,991.2
2023-01-15T21:25:53.121Z,991.2
2023-01-15T21:28:53.129Z,991.2
2023-01-15T21:31:53.168Z,991.1
2023-01-15T21:34:53.115Z,991.1
2023-01-15T21:37:53.120Z,990.9
2023-01-15T21:40:53.115Z,990.9
2023-01-15T21:43:53.122Z,991
2023-01-15T21:46:53.150Z,991
2023-01-15T21:49:53.138Z,991
2023-01-15T21:52:53.143Z,991
2023-01-15T21:55:53.143Z,990.9
2023-01-15T21:58:53.143Z,991
2023-01-15T22:01:53.283Z,990.9
2023-01-15T22:04:53.144Z,990.9
2023-01-15T22:07:53.184Z,991.1
2023-01-15T22:10:53.149Z,991
2023-01-15T22:13:53.160Z,990.9
2023-01-15T22:16:53.192Z,991
2023-01-15T22:19:53.165Z,991.1
2023-01-15T22:22:53.153Z,991.1
2023-01-15T22:25:53.151Z,991.1
2023-01-15T22:28:53.154Z,991.1
2023-01-15T22:31:53.170Z,991.1
2023-01-15T22:34:53.155Z,991.1
2023-01-15T22:37:53.165Z,991.1
2023-01-15T22:40:53.165Z,991.2
2023-01-15T22:43:53.161Z,991.2
2023-01-15T22:46:53.172Z,991.1
2023-01-15T22:49:53.171Z,990.9
2023-01-15T22:52:53.168Z,991
2023-01-15T22:55:53.159Z,991
2023-01-15T22:58:53.170Z,991
2023-01-15T23:01:53.291Z,991
2023-01-15T23:04:53.168Z,991
2023-01-15T23:07:53.175Z,991
2023-01-15T23:10:53.172Z,990.9
2023-01-15T23:13:53.179Z,991
2023-01-15T23:16:53.217Z,991.1
2023-01-15T23:19:53.185Z,991.1
2023-01-15T23:22:53.188Z,991
2023-01-15T23:25:53.411Z,991.1
2023-01-15T23:28:53.193Z,991
2023-01-15T23:31:53.205Z,991
2023-01-15T23:34:53.225Z,990.9
2023-01-15T23:37:53.198Z,991
2023-01-15T23:40:53.216Z,990.8
2023-01-15T23:43:53.202Z,990.7
2023-01-15T23:46:53.216Z,990.9
2023-01-15T23:49:53.207Z,990.9
2023-01-15T23:52:53.236Z,990.9
2023-01-15T23:55:53.219Z,990.8
2023-01-15T23:58:53.226Z,990.7
